createdAt,value
2018-03-24T00:01:09.828Z,50.38
2018-03-24T00:03:38.210Z,50.10
2018-03-24T00:06:06.602Z,54.33
2018-03-24T00:08:35.818Z,47.47
2018-03-24T00:11:04.173Z,53.92
2018-03-24T00:13:32.546Z,50.25
2018-03-24T00:16:00.929Z,51.60
2018-03-24T00:18:30.812Z,56.28
2018-03-24T00:20:59.207Z,51.28
2018-03-24T00:23:27.582Z,50.50
2018-03-24T00:25:56.080Z,50.17
2018-03-24T00:28:24.471Z,51.80
2018-03-24T00:30:52.910Z,48.55
2018-03-24T00:33:21.287Z,50.00
2018-03-24T00:35:49.682Z,50.25
2018-03-24T00:38:18.056Z,47.62
2018-03-24T00:40:46.574Z,54.47
2018-03-24T00:43:15.723Z,50.45
2018-03-24T00:45:44.115Z,55.70
2018-03-24T00:48:13.411Z,51.83
2018-03-24T00:50:42.754Z,48.95
2018-03-24T00:53:12.223Z,52.92
2018-03-24T00:55:40.606Z,50.15
2018-03-24T00:58:08.998Z,55.78
2018-03-24T01:00:37.374Z,52.30
2018-03-24T01:03:05.770Z,52.88
2018-03-24T01:05:34.954Z,52.80
2018-03-24T01:08:03.809Z,47.53
2018-03-24T01:10:32.195Z,50.33
2018-03-24T01:13:00.572Z,50.85
2018-03-24T01:15:28.970Z,54.67
2018-03-24T01:17:57.351Z,44.85
2018-03-24T01:20:25.769Z,52.78
2018-03-24T01:22:54.137Z,50.70
2018-03-24T01:25:23.287Z,58.03
2018-03-24T01:27:51.682Z,54.03
2018-03-24T01:30:20.050Z,55.95
2018-03-24T01:32:48.451Z,54.78
2018-03-24T01:35:16.821Z,52.42
2018-03-24T01:37:45.220Z,59.35
2018-03-24T01:40:14.373Z,51.83
2018-03-24T01:42:42.762Z,54.63
2018-03-24T01:45:11.134Z,55.22
2018-03-24T01:47:39.798Z,59.13
2018-03-24T01:50:08.182Z,50.50
2018-03-24T01:52:37.268Z,58.22
2018-03-24T01:55:05.675Z,60.25
2018-03-24T01:57:34.050Z,51.13
2018-03-24T02:00:02.451Z,58.20
2018-03-24T02:02:30.834Z,56.45
2018-03-24T02:04:59.254Z,59.42
2018-03-24T02:07:27.615Z,53.33
2018-03-24T02:09:56.026Z,51.95
2018-03-24T02:12:24.391Z,78.12
2018-03-24T02:14:52.789Z,70.55
2018-03-24T02:17:21.164Z,56.85
2018-03-24T02:19:49.580Z,68.90
2018-03-24T02:22:17.955Z,56.90
2018-03-24T02:24:48.834Z,73.40
2018-03-24T02:27:17.192Z,64.82
2018-03-24T02:29:46.381Z,63.87
2018-03-24T02:32:15.561Z,63.03
2018-03-24T02:34:43.937Z,64.03
2018-03-24T02:37:12.342Z,66.72
2018-03-24T02:39:41.484Z,58.10
2018-03-24T02:42:09.888Z,63.70
2018-03-24T02:44:38.258Z,59.80
2018-03-24T02:47:06.655Z,57.40
2018-03-24T02:49:35.030Z,64.40
2018-03-24T02:52:03.443Z,64.18
2018-03-24T02:54:31.810Z,64.60
2018-03-24T02:57:00.962Z,63.80
2018-03-24T02:59:29.337Z,68.78
2018-03-24T03:01:57.737Z,74.70
2018-03-24T03:04:26.115Z,59.50
2018-03-24T03:06:54.507Z,66.68
2018-03-24T03:09:22.879Z,64.50
2018-03-24T03:11:51.299Z,68.35
2018-03-24T03:14:19.670Z,68.40
2018-03-24T03:16:49.335Z,67.70
2018-03-24T03:19:18.316Z,67.12
2018-03-24T03:21:54.004Z,71.45
2018-03-24T03:24:23.790Z,73.68
2018-03-24T03:26:52.779Z,64.28
2018-03-24T03:29:22.240Z,67.85
2018-03-24T03:31:53.854Z,60.88
2018-03-24T03:34:23.211Z,64.03
2018-03-24T03:36:52.143Z,64.55
2018-03-24T03:39:21.106Z,60.12
2018-03-24T03:41:49.979Z,69.10
2018-03-24T03:44:18.374Z,69.18
2018-03-24T03:46:46.766Z,71.75
2018-03-24T03:49:15.147Z,67.10
2018-03-24T03:51:43.543Z,71.22
2018-03-24T03:54:11.922Z,70.10
2018-03-24T03:56:41.081Z,69.15
2018-03-24T03:59:09.450Z,71.40
2018-03-24T04:01:37.842Z,70.32
2018-03-24T04:04:06.229Z,67.07
2018-03-24T04:06:34.678Z,63.25
2018-03-24T04:09:03.066Z,74.28
2018-03-24T04:11:31.443Z,72.97
2018-03-24T04:13:59.838Z,65.55
2018-03-24T04:16:28.222Z,67.30
2018-03-24T04:18:56.614Z,81.25
2018-03-24T04:21:25.011Z,71.68
2018-03-24T04:23:54.166Z,69.50
2018-03-24T04:26:22.543Z,72.20
2018-03-24T04:28:51.021Z,77.03
2018-03-24T04:31:19.383Z,65.03
2018-03-24T04:33:47.786Z,72.85
2018-03-24T04:36:16.154Z,72.37
2018-03-24T04:38:44.552Z,64.03
2018-03-24T04:41:12.924Z,72.93
2018-03-24T04:43:41.586Z,76.30
2018-03-24T04:46:09.973Z,73.75
2018-03-24T04:48:38.341Z,87.12
2018-03-24T04:51:06.735Z,73.03
2018-03-24T04:53:35.101Z,72.10
2018-03-24T04:56:03.490Z,72.25
2018-03-24T04:58:31.859Z,69.40
2018-03-24T05:01:00.258Z,74.40
2018-03-24T05:03:28.631Z,76.22
2018-03-24T05:05:57.050Z,67.07
2018-03-24T05:08:26.179Z,73.93
2018-03-24T05:10:54.550Z,87.55
2018-03-24T05:13:22.937Z,76.80
2018-03-24T05:15:51.314Z,72.72
2018-03-24T05:18:19.705Z,77.15
2018-03-24T05:20:48.074Z,74.95
2018-03-24T05:23:16.498Z,76.72
2018-03-24T05:25:45.654Z,69.68
2018-03-24T05:28:14.992Z,74.82
2018-03-24T05:30:43.387Z,74.95
2018-03-24T05:33:11.770Z,77.57
2018-03-24T05:35:41.006Z,77.10
2018-03-24T05:38:09.402Z,86.12
2018-03-24T05:40:37.805Z,69.80
2018-03-24T05:43:06.186Z,87.28
2018-03-24T05:45:34.550Z,82.65
2018-03-24T05:48:02.963Z,76.60
2018-03-24T05:50:32.093Z,82.65
2018-03-24T05:53:00.486Z,86.43
2018-03-24T05:55:28.862Z,75.25
2018-03-24T05:57:57.233Z,82.90
2018-03-24T06:00:25.642Z,90.00
2018-03-24T06:02:54.022Z,84.87
2018-03-24T06:05:22.434Z,83.82
2018-03-24T06:07:51.569Z,76.78
2018-03-24T06:10:19.947Z,82.85
2018-03-24T06:12:48.337Z,88.68
2018-03-24T06:15:16.705Z,78.37
2018-03-24T06:17:45.091Z,76.68
2018-03-24T06:20:13.462Z,77.97
2018-03-24T06:22:41.912Z,62.65
2018-03-24T06:25:11.052Z,63.17
2018-03-24T06:27:46.473Z,61.80
2018-03-24T06:30:25.542Z,64.82
2018-03-24T06:32:54.198Z,59.72
2018-03-24T06:37:56.486Z,54.55
2018-03-24T06:40:24.873Z,58.60
2018-03-24T06:42:53.246Z,55.58
2018-03-24T06:45:21.643Z,57.03
2018-03-24T06:47:50.021Z,58.38
2018-03-24T06:50:18.410Z,60.65
2018-03-24T06:52:47.560Z,54.47
2018-03-24T06:55:16.226Z,56.53
2018-03-24T06:57:44.602Z,62.22
2018-03-24T07:00:13.040Z,57.13
2018-03-24T07:02:41.430Z,54.08
2018-03-24T07:05:09.822Z,51.78
2018-03-24T07:07:39.022Z,56.55
2018-03-24T07:10:08.198Z,48.85
2018-03-24T07:12:36.984Z,50.55
2018-03-24T07:15:05.355Z,50.00
2018-03-24T07:17:34.649Z,52.13
2018-03-24T07:20:03.090Z,52.35
2018-03-24T07:22:31.508Z,46.37
2018-03-24T07:24:59.977Z,48.08
2018-03-24T07:27:28.362Z,43.92
2018-03-24T07:29:56.778Z,46.58
2018-03-24T07:32:25.166Z,46.30
2018-03-24T07:34:54.317Z,41.97
2018-03-24T07:37:22.734Z,41.92
2018-03-24T07:39:51.993Z,45.97
2018-03-24T07:42:20.500Z,46.80
2018-03-24T07:44:48.870Z,43.00
2018-03-24T07:47:17.559Z,40.70
2018-03-24T07:49:45.968Z,40.97
2018-03-24T07:52:15.115Z,41.42
2018-03-24T07:54:43.516Z,41.37
2018-03-24T07:57:11.898Z,47.60
2018-03-24T07:59:46.250Z,49.33
2018-03-24T08:02:14.643Z,46.70
2018-03-24T08:04:43.307Z,42.65
2018-03-24T08:07:12.461Z,49.25
2018-03-24T08:09:40.847Z,46.35
2018-03-24T08:12:10.056Z,45.85
2018-03-24T08:14:38.447Z,43.92
2018-03-24T08:17:06.858Z,36.25
2018-03-24T08:19:35.242Z,34.47
2018-03-24T08:22:03.989Z,39.38
2018-03-24T08:24:33.145Z,33.17
2018-03-24T08:27:01.526Z,41.65
2018-03-24T08:29:29.942Z,34.35
2018-03-24T08:31:59.137Z,37.90
2018-03-24T08:34:27.582Z,40.40
2018-03-24T08:36:56.177Z,36.65
2018-03-24T08:39:24.961Z,35.85
2018-03-24T08:41:53.410Z,35.67
2018-03-24T08:44:21.814Z,39.67
2018-03-24T08:46:51.113Z,34.70
2018-03-24T08:49:19.536Z,37.95
2018-03-24T08:51:47.981Z,41.85
2018-03-24T08:54:16.385Z,39.53
2018-03-24T08:56:46.065Z,36.87
2018-03-24T08:59:14.457Z,38.80
2018-03-24T09:01:42.963Z,34.13
2018-03-24T09:04:12.148Z,35.00
2018-03-24T09:06:40.530Z,34.60
2018-03-24T09:09:09.701Z,37.10
2018-03-24T09:11:38.088Z,37.70
2018-03-24T09:14:06.593Z,37.80
2018-03-24T09:16:35.742Z,42.13
2018-03-24T09:19:04.139Z,35.83
2018-03-24T09:21:32.778Z,36.57
2018-03-24T09:24:01.231Z,32.70
2018-03-24T09:26:30.479Z,35.43
2018-03-24T09:28:58.962Z,35.50
2018-03-24T09:31:27.545Z,35.30
2018-03-24T09:33:55.928Z,33.73
2018-03-24T09:36:24.333Z,31.07
2018-03-24T09:38:52.773Z,34.47
2018-03-24T09:41:21.146Z,28.80
2018-03-24T09:43:49.873Z,32.77
2018-03-24T09:46:18.287Z,36.87
2018-03-24T09:48:47.736Z,34.40
2018-03-24T09:51:16.116Z,35.97
2018-03-24T09:53:44.513Z,31.13
2018-03-24T09:56:13.582Z,34.60
2018-03-24T09:58:42.019Z,31.90
2018-03-24T10:01:11.186Z,29.70
2018-03-24T10:03:39.565Z,33.73
2018-03-24T10:06:07.982Z,29.07
2018-03-24T10:08:36.430Z,32.57
2018-03-24T10:11:04.824Z,33.17
2018-03-24T10:13:34.041Z,30.53
2018-03-24T10:16:02.432Z,30.97
2018-03-24T10:18:30.852Z,28.47
2018-03-24T10:24:25.402Z,26.27
2018-03-24T10:26:54.541Z,24.33
2018-03-24T10:29:22.951Z,26.80
2018-03-24T10:31:51.332Z,25.30
2018-03-24T10:34:19.712Z,26.80
2018-03-24T10:36:48.891Z,24.67
2018-03-24T10:39:17.322Z,25.60
2018-03-24T10:41:45.733Z,24.03
2018-03-24T10:44:14.122Z,24.50
2018-03-24T10:46:42.585Z,20.57
2018-03-24T10:49:11.699Z,24.30
2018-03-24T10:51:40.363Z,18.40
2018-03-24T10:54:08.761Z,22.43
2018-03-24T10:56:37.203Z,22.93
2018-03-24T10:59:05.609Z,20.77
2018-03-24T11:01:34.025Z,20.10
2018-03-24T11:04:02.427Z,20.33
2018-03-24T11:06:31.570Z,20.47
2018-03-24T11:08:59.968Z,22.47
2018-03-24T11:11:28.355Z,19.50
2018-03-24T11:13:56.907Z,24.70
2018-03-24T11:16:26.254Z,20.63
2018-03-24T11:18:55.575Z,21.17
2018-03-24T11:21:23.969Z,20.33
2018-03-24T11:23:52.354Z,21.77
2018-03-24T11:26:21.190Z,20.73
2018-03-24T11:28:49.567Z,20.17
2018-03-24T11:31:18.107Z,21.30
2018-03-24T11:33:46.506Z,18.20
2018-03-24T11:36:14.954Z,18.40
2018-03-24T11:38:43.369Z,20.30
2018-03-24T11:41:11.738Z,18.93
2018-03-24T11:43:40.150Z,22.53
2018-03-24T11:46:08.843Z,21.67
2018-03-24T11:48:38.042Z,20.60
2018-03-24T11:51:07.186Z,20.20
2018-03-24T11:53:47.286Z,18.90
2018-03-24T11:56:16.440Z,20.97
2018-03-24T11:58:44.842Z,19.03
2018-03-24T12:01:13.254Z,17.07
2018-03-24T12:03:42.410Z,20.10
2018-03-24T12:06:10.852Z,18.90
2018-03-24T12:08:40.599Z,21.40
2018-03-24T12:11:09.365Z,18.80
2018-03-24T12:13:37.752Z,22.00
2018-03-24T12:16:06.126Z,19.60
2018-03-24T12:18:35.479Z,17.07
2018-03-24T12:21:05.497Z,21.20
2018-03-24T12:23:34.907Z,22.80
2018-03-24T12:26:04.155Z,24.50
2018-03-24T12:28:32.564Z,24.90
2018-03-24T12:31:00.965Z,23.70
2018-03-24T12:33:29.482Z,28.93
2018-03-24T12:35:57.934Z,25.50
2018-03-24T12:38:26.398Z,27.07
2018-03-24T12:40:55.614Z,24.60
2018-03-24T12:43:24.089Z,24.70
2018-03-24T12:45:52.621Z,26.33
2018-03-24T12:48:21.002Z,29.10
2018-03-24T12:50:49.426Z,22.20
2018-03-24T12:53:17.826Z,26.90
2018-03-24T12:55:46.201Z,26.90
2018-03-24T12:58:16.370Z,23.60
2018-03-24T13:00:46.259Z,25.87
2018-03-24T13:03:14.658Z,25.20
2018-03-24T13:05:43.773Z,29.50
2018-03-24T13:08:12.958Z,25.57
2018-03-24T13:10:41.405Z,36.53
2018-03-24T13:13:09.798Z,26.63
2018-03-24T13:15:38.197Z,23.70
2018-03-24T13:18:06.574Z,25.03
2018-03-24T13:20:36.482Z,24.00
2018-03-24T13:23:04.857Z,25.23
2018-03-24T13:25:34.082Z,24.47
2018-03-24T13:28:03.226Z,26.10
2018-03-24T13:30:31.612Z,29.90
2018-03-24T13:33:00.054Z,24.87
2018-03-24T13:35:28.452Z,23.80
2018-03-24T13:37:56.911Z,24.90
2018-03-24T13:40:25.290Z,27.83
2018-03-24T13:42:53.793Z,23.23
2018-03-24T13:45:24.056Z,25.27
2018-03-24T13:47:53.242Z,25.00
2018-03-24T13:50:21.722Z,27.23
2018-03-24T13:52:50.113Z,23.60
2018-03-24T13:55:18.518Z,26.17
2018-03-24T13:57:47.659Z,24.77
2018-03-24T14:00:16.234Z,23.53
2018-03-24T14:02:44.621Z,24.93
2018-03-24T14:05:13.010Z,24.43
2018-03-24T14:07:41.416Z,24.07
2018-03-24T14:10:09.809Z,23.47
2018-03-24T14:12:38.974Z,28.33
2018-03-24T14:15:07.369Z,28.53
2018-03-24T14:17:36.562Z,29.23
2018-03-24T14:20:05.715Z,24.27
2018-03-24T14:22:34.155Z,27.00
2018-03-24T14:25:03.356Z,26.97
2018-03-24T14:27:32.502Z,25.27
2018-03-24T14:30:01.009Z,25.43
2018-03-24T14:32:30.902Z,23.83
2018-03-24T14:34:59.531Z,27.27
2018-03-24T14:37:28.691Z,24.57
2018-03-24T14:39:57.074Z,28.73
2018-03-24T14:42:37.104Z,27.77
2018-03-24T14:45:06.031Z,26.83
2018-03-24T14:47:34.444Z,28.10
2018-03-24T14:50:02.833Z,30.57
2018-03-24T14:52:31.768Z,28.73
2018-03-24T14:55:00.237Z,32.10
2018-03-24T14:57:28.641Z,31.27
2018-03-24T14:59:57.104Z,32.40
2018-03-24T15:02:25.567Z,34.80
2018-03-24T15:04:54.009Z,34.65
2018-03-24T15:07:22.428Z,35.60
2018-03-24T15:09:51.111Z,27.08
2018-03-24T15:12:19.559Z,37.58
2018-03-24T15:14:47.957Z,33.03
2018-03-24T15:17:17.134Z,32.20
2018-03-24T15:19:45.513Z,32.33
2018-03-24T15:22:13.923Z,35.65
2018-03-24T15:24:42.312Z,38.17
2018-03-24T15:27:10.988Z,33.78
2018-03-24T15:29:57.178Z,34.60
2018-03-24T15:35:35.894Z,36.03
2018-03-24T15:38:04.606Z,46.25
2018-03-24T15:40:33.109Z,39.92
2018-03-24T15:43:02.617Z,33.58
2018-03-24T15:45:31.046Z,39.50
2018-03-24T15:47:59.467Z,42.53
2018-03-24T15:50:28.099Z,33.92
2018-03-24T15:52:57.295Z,46.78
2018-03-24T15:55:25.785Z,34.03
2018-03-24T15:57:54.175Z,37.10
2018-03-24T16:00:23.096Z,39.60
2018-03-24T16:02:51.672Z,39.45
2018-03-24T16:05:20.081Z,40.00
2018-03-24T16:07:49.105Z,38.28
2018-03-24T16:10:17.573Z,39.92
2018-03-24T16:12:46.780Z,38.85
2018-03-24T16:15:16.018Z,39.05
2018-03-24T16:17:45.217Z,40.55
2018-03-24T16:20:13.795Z,40.30
2018-03-24T16:22:42.178Z,42.53
2018-03-24T16:25:10.562Z,40.60
2018-03-24T16:27:40.939Z,37.85
2018-03-24T16:30:10.164Z,43.38
2018-03-24T16:32:38.771Z,41.83
2018-03-24T16:35:07.815Z,43.15
2018-03-24T16:37:36.567Z,37.40
2018-03-24T16:40:05.827Z,46.30
2018-03-24T16:42:36.252Z,59.58
2018-03-24T16:45:05.767Z,42.45
2018-03-24T16:47:34.850Z,52.13
2018-03-24T16:50:03.907Z,42.25
2018-03-24T16:52:32.565Z,44.70
2018-03-24T16:55:01.503Z,41.67
2018-03-24T16:57:31.000Z,43.13
2018-03-24T17:00:00.453Z,40.12
2018-03-24T17:02:30.081Z,44.92
2018-03-24T17:04:58.716Z,41.55
2018-03-24T17:07:27.774Z,41.47
2018-03-24T17:09:57.498Z,35.20
2018-03-24T17:12:28.051Z,41.47
2018-03-24T17:17:31.628Z,47.90
2018-03-24T17:20:01.227Z,45.20
2018-03-24T17:22:30.324Z,43.63
2018-03-24T17:25:00.044Z,36.28
2018-03-24T17:27:29.503Z,45.72
2018-03-24T17:29:58.421Z,46.78
2018-03-24T17:32:27.311Z,43.50
2018-03-24T17:34:57.128Z,48.15
2018-03-24T17:37:26.557Z,44.75
2018-03-24T17:39:56.408Z,42.47
2018-03-24T17:42:26.567Z,47.38
2018-03-24T17:44:56.043Z,52.42
2018-03-24T17:47:25.332Z,51.37
2018-03-24T17:49:53.706Z,48.83
2018-03-24T17:52:22.098Z,49.20
2018-03-24T17:54:50.632Z,48.38
2018-03-24T17:57:19.806Z,45.33
2018-03-24T17:59:48.219Z,50.70
2018-03-24T18:02:16.840Z,45.22
2018-03-24T18:04:45.545Z,43.65
2018-03-24T18:07:15.871Z,45.85
2018-03-24T18:09:51.894Z,41.70
2018-03-24T18:15:18.156Z,39.25
2018-03-24T18:17:46.598Z,38.55
2018-03-24T18:20:15.767Z,42.72
2018-03-24T18:22:45.861Z,43.70
2018-03-24T18:25:15.257Z,41.95
2018-03-24T18:27:43.774Z,42.95
2018-03-24T18:30:12.431Z,50.63
2018-03-24T18:32:41.116Z,44.33
2018-03-24T18:35:09.835Z,44.97
2018-03-24T18:37:41.170Z,44.65
2018-03-24T18:40:09.728Z,41.85
2018-03-24T18:42:38.458Z,59.05
2018-03-24T18:45:07.618Z,47.53
2018-03-24T18:47:35.997Z,48.87
2018-03-24T18:50:04.431Z,48.72
2018-03-24T18:52:32.806Z,46.25
2018-03-24T18:55:01.593Z,52.22
2018-03-24T18:57:30.052Z,55.22
2018-03-24T18:59:59.625Z,46.45
2018-03-24T19:02:28.495Z,38.72
2018-03-24T19:04:57.190Z,45.97
2018-03-24T19:07:26.796Z,47.65
2018-03-24T19:09:55.379Z,46.20
2018-03-24T19:12:24.168Z,49.33
2018-03-24T19:14:53.414Z,45.97
2018-03-24T19:17:22.981Z,47.53
2018-03-24T19:19:52.161Z,45.55
2018-03-24T19:22:20.852Z,57.58
2018-03-24T19:24:49.224Z,43.70
2018-03-24T19:27:17.601Z,51.92
2018-03-24T19:29:45.999Z,43.75
2018-03-24T19:32:14.421Z,47.85
2018-03-24T19:34:43.591Z,43.85
2018-03-24T19:37:11.977Z,44.50
2018-03-24T19:39:40.377Z,45.83
2018-03-24T19:42:09.513Z,50.53
2018-03-24T19:44:53.851Z,48.87
2018-03-24T19:47:24.528Z,58.45
2018-03-24T19:49:53.015Z,63.05
2018-03-24T19:52:21.387Z,51.92
2018-03-24T19:54:50.563Z,52.38
2018-03-24T19:57:18.993Z,62.83
2018-03-24T19:59:48.161Z,53.50
2018-03-24T20:02:16.566Z,63.42
2018-03-24T20:04:46.312Z,50.88
2018-03-24T20:07:14.722Z,48.65
2018-03-24T20:09:43.093Z,55.12
2018-03-24T20:12:11.492Z,50.33
2018-03-24T20:14:40.250Z,51.97
2018-03-24T20:17:09.293Z,51.97
2018-03-24T20:19:38.886Z,49.40
2018-03-24T20:22:08.440Z,64.50
2018-03-24T20:24:36.982Z,58.10
2018-03-24T20:27:06.443Z,53.72
2018-03-24T20:29:34.845Z,46.90
2018-03-24T20:32:03.233Z,56.55
2018-03-24T20:34:32.386Z,59.30
2018-03-24T20:37:00.848Z,50.33
2018-03-24T20:39:29.461Z,52.72
2018-03-24T20:41:58.285Z,52.42
2018-03-24T20:44:26.918Z,47.40
2018-03-24T20:46:55.508Z,54.08
2018-03-24T20:49:24.129Z,53.22
2018-03-24T20:51:52.577Z,56.50
2018-03-24T20:54:21.247Z,57.08
2018-03-24T20:56:49.761Z,48.35
2018-03-24T20:59:18.140Z,45.97
2018-03-24T21:01:46.861Z,53.80
2018-03-24T21:04:16.059Z,42.45
2018-03-24T21:06:45.763Z,69.37
2018-03-24T21:09:15.192Z,67.12
2018-03-24T21:11:44.132Z,70.32
2018-03-24T21:14:14.249Z,64.93
2018-03-24T21:16:43.217Z,63.00
2018-03-24T21:19:13.968Z,59.92
2018-03-24T21:21:43.644Z,51.45
2018-03-24T21:24:12.667Z,45.90
2018-03-24T21:26:42.246Z,46.53
2018-03-24T21:29:10.799Z,53.87
2018-03-24T21:31:40.652Z,44.60
2018-03-24T21:34:10.727Z,47.78
2018-03-24T21:36:40.083Z,42.80
2018-03-24T21:39:08.504Z,58.35
2018-03-24T21:41:38.034Z,49.65
2018-03-24T21:44:06.461Z,44.50
2018-03-24T21:46:35.295Z,41.20
2018-03-24T21:49:03.730Z,49.85
2018-03-24T21:51:32.115Z,55.25
2018-03-24T21:54:01.315Z,49.55
2018-03-24T21:56:31.409Z,46.97
2018-03-24T21:58:59.896Z,44.42
2018-03-24T22:01:28.318Z,42.03
2018-03-24T22:03:56.730Z,45.85
2018-03-24T22:06:25.132Z,47.15
2018-03-24T22:08:54.129Z,55.45
2018-03-24T22:11:24.359Z,48.72
2018-03-24T22:13:53.584Z,46.47
2018-03-24T22:16:22.752Z,54.15
2018-03-24T22:18:51.145Z,44.20
2018-03-24T22:21:20.469Z,42.45
2018-03-24T22:23:50.054Z,47.85
2018-03-24T22:26:21.442Z,49.78
2018-03-24T22:28:49.865Z,48.60
2018-03-24T22:31:20.029Z,48.00
2018-03-24T22:33:53.306Z,46.17
2018-03-24T22:36:22.560Z,43.87
2018-03-24T22:38:51.793Z,46.10
2018-03-24T22:41:21.559Z,52.47
2018-03-24T22:43:50.670Z,55.70
2018-03-24T22:46:21.668Z,50.08
2018-03-24T22:48:50.094Z,42.22
2018-03-24T22:51:20.206Z,49.30
2018-03-24T22:53:49.776Z,51.55
2018-03-24T22:56:19.571Z,54.08
2018-03-24T22:58:48.383Z,60.65
2018-03-24T23:01:21.926Z,42.90
2018-03-24T23:03:50.302Z,48.35
2018-03-24T23:06:18.678Z,55.40
2018-03-24T23:08:47.089Z,49.88
2018-03-24T23:11:16.232Z,53.42
2018-03-24T23:13:44.639Z,65.55
2018-03-24T23:16:13.037Z,56.83
2018-03-24T23:18:44.807Z,55.97
2018-03-24T23:21:13.444Z,61.28
2018-03-24T23:23:41.831Z,63.47
2018-03-24T23:26:10.414Z,56.17
2018-03-24T23:28:38.797Z,54.65
2018-03-24T23:31:07.310Z,46.15
2018-03-24T23:33:36.942Z,49.25
2018-03-24T23:36:05.674Z,57.10
2018-03-24T23:38:35.803Z,63.97
2018-03-24T23:41:04.615Z,48.63
2018-03-24T23:43:33.607Z,55.78
2018-03-24T23:46:03.239Z,53.10
2018-03-24T23:48:31.971Z,55.10
2018-03-24T23:51:01.317Z,47.83
2018-03-24T23:53:30.498Z,62.10
2018-03-24T23:56:00.940Z,53.47
2018-03-24T23:58:30.746Z,55.25
